Time;durP1;ratioP1;P1;durP2;ratioP2;P2;SDS_P1;SDS_P2;PMS_P1;PMS_P2;Temp;Humidity;BMP_temperature;BMP_pressure;BME280_temperature;BME280_humidity;BME280_pressure;Samples;Min_cycle;Max_cycle;Signal;HPM_P1;HPM_P2
2023/12/31 00:00:55;;;;;;;2.67;1.13;;;;;;;;;;5027463;28;20144;-64
2023/12/31 00:03:22;;;;;;;1.58;0.85;;;;;;;;;;5041779;28;20073;-64
2023/12/31 00:05:49;;;;;;;5.65;1.35;;;;;;;;;;5033357;28;20060;-63
2023/12/31 00:08:15;;;;;;;1.65;1.00;;;;;;;;;;5039735;28;20133;-63
2023/12/31 00:10:44;;;;;;;2.75;1.02;;;;;;;;;;5031671;28;20056;-64
2023/12/31 00:13:10;;;;;;;3.05;1.45;;;;;;;;;;5025191;28;20053;-63
2023/12/31 00:15:37;;;;;;;2.80;1.42;;;;;;;;;;5022751;28;20041;-65
2023/12/31 00:18:04;;;;;;;5.30;2.17;;;;;;;;;;5024725;28;20081;-64
2023/12/31 00:20:31;;;;;;;6.30;2.08;;;;;;;;;;5003092;28;20062;-64
2023/12/31 00:22:58;;;;;;;5.82;2.20;;;;;;;;;;5017862;28;20053;-64
2023/12/31 00:25:27;;;;;;;5.57;1.60;;;;;;;;;;5038269;28;20136;-65
2023/12/31 00:27:55;;;;;;;4.95;1.20;;;;;;;;;;5018687;28;20057;-64
2023/12/31 00:30:22;;;;;;;3.25;1.10;;;;;;;;;;5031823;28;20053;-64
2023/12/31 00:32:49;;;;;;;2.30;1.00;;;;;;;;;;5019131;28;20056;-65
2023/12/31 00:35:16;;;;;;;1.25;0.80;;;;;;;;;;5029061;28;20206;-64
2023/12/31 00:37:43;;;;;;;3.33;1.50;;;;;;;;;;5024836;28;20056;-65
2023/12/31 00:40:11;;;;;;;1.38;0.85;;;;;;;;;;5011960;28;20057;-64
2023/12/31 00:42:38;;;;;;;2.70;1.05;;;;;;;;;;5021020;28;20115;-64
2023/12/31 00:45:08;;;;;;;1.83;0.70;;;;;;;;;;5019372;28;20084;-64
2023/12/31 00:47:35;;;;;;;2.35;0.80;;;;;;;;;;5029401;28;20041;-63
2023/12/31 00:50:03;;;;;;;3.47;0.85;;;;;;;;;;5009993;28;20064;-63
2023/12/31 00:52:30;;;;;;;3.72;1.00;;;;;;;;;;4997306;28;20057;-64
2023/12/31 00:54:57;;;;;;;2.15;0.75;;;;;;;;;;5027535;28;20072;-64
2023/12/31 00:57:26;;;;;;;2.00;0.80;;;;;;;;;;5025548;28;20064;-64
2023/12/31 00:59:53;;;;;;;1.42;0.80;;;;;;;;;;5025300;28;20068;-63
2023/12/31 01:02:21;;;;;;;2.10;0.88;;;;;;;;;;5033148;28;20053;-64
2023/12/31 01:04:48;;;;;;;2.03;0.80;;;;;;;;;;5030827;28;20048;-64
2023/12/31 01:07:14;;;;;;;1.50;0.68;;;;;;;;;;5034266;28;20111;-64
2023/12/31 01:09:41;;;;;;;0.90;0.50;;;;;;;;;;5019507;28;20147;-63
2023/12/31 01:12:08;;;;;;;2.25;0.80;;;;;;;;;;5005336;28;20049;-64
2023/12/31 01:14:37;;;;;;;1.75;0.80;;;;;;;;;;5030604;28;20142;-64
2023/12/31 01:17:04;;;;;;;2.17;0.95;;;;;;;;;;5026687;28;20156;-65
2023/12/31 01:19:33;;;;;;;2.10;0.68;;;;;;;;;;5021357;28;20239;-64
2023/12/31 01:21:59;;;;;;;3.35;0.90;;;;;;;;;;4988936;28;20057;-63
2023/12/31 01:24:26;;;;;;;3.33;0.73;;;;;;;;;;5020500;28;20556;-63
2023/12/31 01:26:53;;;;;;;2.00;0.80;;;;;;;;;;5012694;28;20041;-63
2023/12/31 01:29:19;;;;;;;2.55;0.80;;;;;;;;;;5022355;28;20295;-64
2023/12/31 01:31:46;;;;;;;0.88;0.68;;;;;;;;;;5011474;28;20061;-65
2023/12/31 01:34:13;;;;;;;2.80;0.68;;;;;;;;;;5015170;28;20049;-63
2023/12/31 01:36:41;;;;;;;1.88;0.70;;;;;;;;;;5025981;28;20265;-63
2023/12/31 01:39:08;;;;;;;0.73;0.63;;;;;;;;;;5028280;28;20064;-63
2023/12/31 01:41:35;;;;;;;5.07;0.82;;;;;;;;;;5022086;28;20050;-64
2023/12/31 01:44:02;;;;;;;1.40;0.70;;;;;;;;;;5020230;28;20059;-64
2023/12/31 01:46:30;;;;;;;1.70;0.80;;;;;;;;;;5016210;28;20049;-63
2023/12/31 01:48:57;;;;;;;1.10;0.57;;;;;;;;;;5020743;28;20049;-64
2023/12/31 01:51:31;;;;;;;1.58;0.60;;;;;;;;;;5027797;28;20139;-63
2023/12/31 01:54:02;;;;;;;1.02;0.40;;;;;;;;;;5023783;28;20057;-64
2023/12/31 01:56:29;;;;;;;1.08;0.52;;;;;;;;;;5027574;28;20081;-64
2023/12/31 01:58:57;;;;;;;4.43;1.77;;;;;;;;;;5026422;28;20057;-63
2023/12/31 02:01:23;;;;;;;5.97;2.75;;;;;;;;;;5017238;28;20179;-64
2023/12/31 02:03:50;;;;;;;6.70;0.68;;;;;;;;;;5009951;28;20057;-63
2023/12/31 02:06:17;;;;;;;2.25;0.80;;;;;;;;;;5027803;28;20115;-64
2023/12/31 02:08:44;;;;;;;2.30;0.60;;;;;;;;;;5029250;28;20060;-65
2023/12/31 02:11:12;;;;;;;0.95;0.60;;;;;;;;;;5002303;28;20055;-63
2023/12/31 02:13:39;;;;;;;1.92;1.08;;;;;;;;;;5015352;28;20057;-64
2023/12/31 02:16:13;;;;;;;2.10;0.73;;;;;;;;;;5024471;28;20064;-64
2023/12/31 02:18:40;;;;;;;1.38;0.60;;;;;;;;;;5029696;28;20056;-63
2023/12/31 02:21:07;;;;;;;1.15;0.77;;;;;;;;;;5017316;28;20065;-63
2023/12/31 02:23:34;;;;;;;3.95;0.70;;;;;;;;;;5015329;28;20143;-64
2023/12/31 02:26:07;;;;;;;2.80;0.82;;;;;;;;;;5015288;28;20045;-63
2023/12/31 02:28:34;;;;;;;1.60;0.55;;;;;;;;;;5032203;28;20045;-64
2023/12/31 02:31:00;;;;;;;2.00;0.80;;;;;;;;;;5027061;28;20191;-63
2023/12/31 02:33:27;;;;;;;1.45;0.75;;;;;;;;;;5022442;28;20063;-63
2023/12/31 02:35:53;;;;;;;2.10;0.68;;;;;;;;;;5016358;28;20103;-62
2023/12/31 02:38:20;;;;;;;1.95;0.95;;;;;;;;;;5026780;28;20195;-63
2023/12/31 02:40:47;;;;;;;1.35;0.88;;;;;;;;;;5014805;28;20168;-62
2023/12/31 02:43:15;;;;;;;1.67;0.90;;;;;;;;;;5028324;28;20044;-65
2023/12/31 02:45:42;;;;;;;3.88;0.77;;;;;;;;;;5007986;28;20085;-66
2023/12/31 02:48:08;;;;;;;2.65;0.98;;;;;;;;;;5023814;28;20049;-66
2023/12/31 02:50:34;;;;;;;1.90;0.65;;;;;;;;;;5013747;28;20040;-65
2023/12/31 02:53:01;;;;;;;3.35;0.73;;;;;;;;;;5024298;28;20073;-66
2023/12/31 02:58:03;;;;;;;4.18;0.65;;;;;;;;;;5208631;22;20054;-63
2023/12/31 03:00:31;;;;;;;3.75;0.82;;;;;;;;;;4950138;28;20046;-63
2023/12/31 03:02:57;;;;;;;2.58;0.90;;;;;;;;;;4938791;28;20069;-63
2023/12/31 03:05:24;;;;;;;1.90;0.80;;;;;;;;;;4926985;28;20051;-63
2023/12/31 03:07:51;;;;;;;0.95;0.60;;;;;;;;;;4945115;28;20054;-63
2023/12/31 03:10:17;;;;;;;2.17;1.00;;;;;;;;;;4953568;28;20113;-66
2023/12/31 03:12:44;;;;;;;3.35;1.45;;;;;;;;;;4933054;28;20054;-63
2023/12/31 03:15:11;;;;;;;3.13;1.08;;;;;;;;;;4932301;28;20051;-63
2023/12/31 03:17:40;;;;;;;2.05;0.90;;;;;;;;;;4948191;28;20051;-63
2023/12/31 03:20:08;;;;;;;;;;;;;;;;;;4952451;28;20050;-63
2023/12/31 03:22:34;;;;;;;1.45;0.70;;;;;;;;;;4954301;28;19926;-63
2023/12/31 03:25:01;;;;;;;1.98;0.88;;;;;;;;;;4913111;28;20118;-62
2023/12/31 03:27:28;;;;;;;1.15;0.80;;;;;;;;;;4934413;28;20078;-64
2023/12/31 03:29:54;;;;;;;2.30;1.00;;;;;;;;;;4929453;28;20077;-64
2023/12/31 03:32:21;;;;;;;1.58;0.70;;;;;;;;;;4952205;28;20159;-63
2023/12/31 03:34:49;;;;;;;2.25;0.80;;;;;;;;;;4935383;28;20059;-63
2023/12/31 03:37:16;;;;;;;0.47;0.43;;;;;;;;;;4934988;28;20078;-63
2023/12/31 03:39:43;;;;;;;1.58;0.88;;;;;;;;;;4936519;28;20141;-62
2023/12/31 03:42:11;;;;;;;3.88;0.82;;;;;;;;;;4946593;28;20062;-62
2023/12/31 03:44:38;;;;;;;1.42;0.73;;;;;;;;;;4941126;28;20054;-63
2023/12/31 03:47:05;;;;;;;1.65;0.80;;;;;;;;;;4955423;28;20139;-63
2023/12/31 03:49:31;;;;;;;1.92;0.93;;;;;;;;;;4954944;28;20054;-63
2023/12/31 03:52:00;;;;;;;3.05;0.70;;;;;;;;;;4936673;28;20078;-62
2023/12/31 03:54:26;;;;;;;1.40;0.90;;;;;;;;;;4935385;28;20090;-62
2023/12/31 03:56:53;;;;;;;1.27;0.77;;;;;;;;;;4954146;28;20071;-63
2023/12/31 03:59:20;;;;;;;3.35;1.30;;;;;;;;;;4938319;28;20054;-63
2023/12/31 04:01:47;;;;;;;3.13;1.02;;;;;;;;;;4948624;28;20073;-64
2023/12/31 04:04:15;;;;;;;1.53;0.93;;;;;;;;;;4932248;28;20077;-64
2023/12/31 04:06:42;;;;;;;2.47;1.00;;;;;;;;;;4938582;28;20069;-63
2023/12/31 04:09:11;;;;;;;1.63;0.80;;;;;;;;;;4957291;28;20050;-64
2023/12/31 04:11:41;;;;;;;2.38;0.90;;;;;;;;;;4943908;28;20122;-63
2023/12/31 04:14:07;;;;;;;0.77;0.52;;;;;;;;;;4916679;28;20124;-63
2023/12/31 04:16:34;;;;;;;1.88;0.70;;;;;;;;;;4939113;28;20055;-63
2023/12/31 04:19:01;;;;;;;1.05;0.60;;;;;;;;;;4957908;28;20058;-63
2023/12/31 04:21:26;;;;;;;1.05;0.70;;;;;;;;;;4936418;28;20074;-63
2023/12/31 04:23:53;;;;;;;1.98;0.82;;;;;;;;;;4932240;28;20047;-64
2023/12/31 04:26:21;;;;;;;1.08;0.68;;;;;;;;;;4960386;28;20059;-63
2023/12/31 04:28:48;;;;;;;2.20;0.93;;;;;;;;;;4940453;28;20141;-63
2023/12/31 04:31:15;;;;;;;1.45;0.50;;;;;;;;;;4940087;28;20053;-63
2023/12/31 04:33:42;;;;;;;1.45;0.90;;;;;;;;;;4945427;28;20065;-63
2023/12/31 04:36:08;;;;;;;3.63;1.23;;;;;;;;;;4939246;28;20122;-63
2023/12/31 04:38:35;;;;;;;2.65;1.05;;;;;;;;;;4939917;28;20099;-63
2023/12/31 04:41:02;;;;;;;4.82;0.80;;;;;;;;;;4942317;28;20074;-63
2023/12/31 04:43:30;;;;;;;4.18;1.00;;;;;;;;;;4958122;28;20131;-64
2023/12/31 04:45:56;;;;;;;1.85;0.90;;;;;;;;;;4938810;28;20070;-63
2023/12/31 04:48:23;;;;;;;3.95;1.00;;;;;;;;;;4957255;28;20067;-63
2023/12/31 04:50:50;;;;;;;2.22;1.10;;;;;;;;;;4943257;28;20158;-63
2023/12/31 04:53:20;;;;;;;1.10;0.40;;;;;;;;;;4939564;28;20073;-64
2023/12/31 04:55:47;;;;;;;2.47;0.75;;;;;;;;;;4934760;28;20062;-63
2023/12/31 04:58:14;;;;;;;1.17;0.70;;;;;;;;;;4932953;29;20133;-64
2023/12/31 05:00:43;;;;;;;2.85;0.95;;;;;;;;;;4937020;28;20062;-63
2023/12/31 05:03:10;;;;;;;2.00;0.93;;;;;;;;;;4951793;28;20086;-65
2023/12/31 05:05:36;;;;;;;2.45;0.80;;;;;;;;;;4933538;28;20051;-63
2023/12/31 05:08:03;;;;;;;0.68;0.63;;;;;;;;;;4934897;28;20082;-64
2023/12/31 05:10:30;;;;;;;1.80;0.93;;;;;;;;;;4937444;29;20145;-64
2023/12/31 05:12:58;;;;;;;2.88;0.77;;;;;;;;;;4936839;29;20047;-64
2023/12/31 05:15:25;;;;;;;5.67;2.00;;;;;;;;;;4934124;28;20062;-64
2023/12/31 05:17:53;;;;;;;2.70;0.95;;;;;;;;;;4927422;28;20055;-64
2023/12/31 05:20:20;;;;;;;2.00;0.90;;;;;;;;;;4937403;28;20074;-63
2023/12/31 05:22:46;;;;;;;3.50;0.93;;;;;;;;;;4936878;29;20055;-64
2023/12/31 05:25:13;;;;;;;1.73;0.63;;;;;;;;;;4932951;28;20062;-63
2023/12/31 05:27:43;;;;;;;1.58;0.98;;;;;;;;;;4935586;28;20055;-63
2023/12/31 05:30:11;;;;;;;2.35;1.02;;;;;;;;;;4934764;28;20125;-63
2023/12/31 05:32:37;;;;;;;2.00;1.08;;;;;;;;;;4939250;29;20162;-63
2023/12/31 05:35:08;;;;;;;1.08;0.73;;;;;;;;;;4932556;29;20087;-64
2023/12/31 05:37:34;;;;;;;1.35;0.70;;;;;;;;;;4936641;28;20295;-63
2023/12/31 05:40:01;;;;;;;3.17;1.00;;;;;;;;;;4931054;28;20146;-64
2023/12/31 05:42:28;;;;;;;3.50;1.65;;;;;;;;;;4941357;28;20055;-64
2023/12/31 05:44:55;;;;;;;4.05;1.33;;;;;;;;;;4934328;28;20083;-63
2023/12/31 05:47:21;;;;;;;5.25;1.33;;;;;;;;;;4932575;29;20150;-64
2023/12/31 05:49:48;;;;;;;1.33;0.82;;;;;;;;;;4932555;29;20051;-63
2023/12/31 05:52:16;;;;;;;4.47;1.10;;;;;;;;;;4932724;29;20055;-63
2023/12/31 05:54:43;;;;;;;1.35;0.88;;;;;;;;;;4928963;28;20130;-64
2023/12/31 05:57:10;;;;;;;2.55;0.90;;;;;;;;;;4930557;28;20085;-64
2023/12/31 05:59:36;;;;;;;3.40;1.30;;;;;;;;;;4928802;28;20133;-64
2023/12/31 06:02:04;;;;;;;2.13;1.10;;;;;;;;;;4931274;28;20058;-63
2023/12/31 06:04:30;;;;;;;3.88;1.25;;;;;;;;;;4936969;28;20486;-63
2023/12/31 06:06:57;;;;;;;2.28;1.02;;;;;;;;;;4943191;28;20074;-63
2023/12/31 06:09:26;;;;;;;2.45;1.08;;;;;;;;;;4953173;28;20054;-63
2023/12/31 06:11:54;;;;;;;1.98;0.95;;;;;;;;;;4937950;28;20105;-64
2023/12/31 06:14:20;;;;;;;2.88;1.10;;;;;;;;;;4929746;28;20101;-64
2023/12/31 06:16:50;;;;;;;2.67;1.20;;;;;;;;;;4959365;28;20251;-65
2023/12/31 06:19:16;;;;;;;2.63;1.20;;;;;;;;;;4941879;28;20046;-64
2023/12/31 06:21:42;;;;;;;5.65;1.38;;;;;;;;;;4929565;28;20057;-64
2023/12/31 06:24:09;;;;;;;3.95;1.20;;;;;;;;;;4902109;28;20059;-63
2023/12/31 06:26:37;;;;;;;2.92;1.30;;;;;;;;;;4935607;28;20058;-64
2023/12/31 06:29:04;;;;;;;2.95;1.30;;;;;;;;;;4941000;28;20126;-64
2023/12/31 06:31:31;;;;;;;2.22;1.13;;;;;;;;;;4950671;28;20150;-64
2023/12/31 06:33:57;;;;;;;2.85;1.30;;;;;;;;;;4929033;28;20062;-63
2023/12/31 06:36:24;;;;;;;3.13;1.05;;;;;;;;;;4954859;28;20063;-63
2023/12/31 06:38:51;;;;;;;4.85;1.50;;;;;;;;;;4941569;28;20078;-65
2023/12/31 06:41:19;;;;;;;4.20;1.42;;;;;;;;;;4941878;28;20109;-64
2023/12/31 06:43:47;;;;;;;;;;;;;;;;;;4931738;28;20061;-64
2023/12/31 06:46:15;;;;;;;3.22;1.10;;;;;;;;;;4945707;28;19926;-64
2023/12/31 06:48:42;;;;;;;4.35;1.05;;;;;;;;;;4938081;28;20054;-63
2023/12/31 06:51:08;;;;;;;1.92;0.88;;;;;;;;;;4949412;28;20084;-64
2023/12/31 06:53:35;;;;;;;1.80;0.88;;;;;;;;;;4924596;28;20086;-64
2023/12/31 06:56:04;;;;;;;3.08;1.25;;;;;;;;;;4931536;28;20062;-64
2023/12/31 06:58:31;;;;;;;2.05;1.33;;;;;;;;;;4926284;29;20055;-63
2023/12/31 07:00:59;;;;;;;4.30;1.67;;;;;;;;;;4933737;28;20070;-64
2023/12/31 07:03:26;;;;;;;1.30;0.82;;;;;;;;;;4937271;28;20058;-64
2023/12/31 07:05:52;;;;;;;2.67;1.42;;;;;;;;;;4927475;29;20051;-63
2023/12/31 07:08:19;;;;;;;3.17;1.52;;;;;;;;;;4937161;29;20154;-63
2023/12/31 07:10:46;;;;;;;3.55;1.58;;;;;;;;;;4939581;29;20169;-64
2023/12/31 07:13:12;;;;;;;3.97;1.30;;;;;;;;;;4937653;28;20169;-63
2023/12/31 07:15:43;;;;;;;3.63;1.45;;;;;;;;;;4938329;28;20051;-64
2023/12/31 07:18:11;;;;;;;4.90;1.70;;;;;;;;;;4931362;28;20145;-63
2023/12/31 07:20:38;;;;;;;2.53;1.20;;;;;;;;;;4935279;29;20138;-64
2023/12/31 07:23:05;;;;;;;2.60;1.25;;;;;;;;;;4935975;28;20051;-64
2023/12/31 07:25:32;;;;;;;2.55;1.25;;;;;;;;;;4937261;28;20059;-63
2023/12/31 07:27:59;;;;;;;2.85;1.30;;;;;;;;;;4934363;28;20050;-63
2023/12/31 07:30:26;;;;;;;4.20;1.63;;;;;;;;;;4943104;28;20296;-63
2023/12/31 07:32:53;;;;;;;4.63;1.90;;;;;;;;;;4939319;29;20070;-63
2023/12/31 07:35:21;;;;;;;4.43;1.63;;;;;;;;;;4929528;28;20154;-63
2023/12/31 07:37:49;;;;;;;3.88;1.50;;;;;;;;;;4944000;28;20129;-64
2023/12/31 07:40:15;;;;;;;3.60;1.60;;;;;;;;;;4940800;28;20122;-63
2023/12/31 07:42:42;;;;;;;4.32;2.15;;;;;;;;;;4940533;29;20123;-63
2023/12/31 07:45:10;;;;;;;7.18;2.10;;;;;;;;;;4938292;28;20150;-63
2023/12/31 07:47:38;;;;;;;3.42;1.77;;;;;;;;;;4935332;28;20058;-63
2023/12/31 07:50:06;;;;;;;2.92;1.50;;;;;;;;;;4933160;28;20137;-63
2023/12/31 07:52:34;;;;;;;3.60;1.42;;;;;;;;;;4942427;28;20070;-65
2023/12/31 07:55:03;;;;;;;2.95;1.38;;;;;;;;;;4935510;29;20079;-64
2023/12/31 07:57:30;;;;;;;;;;;;;;;;;;4945177;28;20476;-63
2023/12/31 07:59:56;;;;;;;5.18;1.98;;;;;;;;;;4936848;28;19930;-64
2023/12/31 08:02:23;;;;;;;3.75;1.42;;;;;;;;;;4956838;28;20078;-65
2023/12/31 08:04:50;;;;;;;3.35;1.50;;;;;;;;;;4929327;28;20077;-65
2023/12/31 08:07:16;;;;;;;3.75;1.40;;;;;;;;;;4941949;28;20150;-65
2023/12/31 08:09:45;;;;;;;2.95;1.50;;;;;;;;;;4937528;29;20067;-65
2023/12/31 08:12:12;;;;;;;3.35;1.33;;;;;;;;;;4938720;28;20170;-65
2023/12/31 08:14:39;;;;;;;2.30;1.27;;;;;;;;;;4938716;28;20059;-65
2023/12/31 08:17:06;;;;;;;3.90;1.30;;;;;;;;;;4942745;29;20054;-64
2023/12/31 08:19:32;;;;;;;4.65;1.40;;;;;;;;;;4937788;29;20059;-63
2023/12/31 08:21:59;;;;;;;2.90;1.15;;;;;;;;;;4933989;29;20122;-64
2023/12/31 08:24:26;;;;;;;3.85;1.60;;;;;;;;;;4947611;28;20063;-64
2023/12/31 08:26:57;;;;;;;4.70;1.80;;;;;;;;;;4934510;28;20051;-64
2023/12/31 08:29:23;;;;;;;3.92;1.67;;;;;;;;;;4941795;28;20051;-64
2023/12/31 08:31:52;;;;;;;3.53;1.58;;;;;;;;;;4929597;28;20168;-64
2023/12/31 08:34:19;;;;;;;3.15;1.30;;;;;;;;;;4936463;28;20146;-64
2023/12/31 08:36:46;;;;;;;3.60;1.60;;;;;;;;;;4941552;29;20061;-63
2023/12/31 08:39:13;;;;;;;3.30;1.85;;;;;;;;;;4937557;28;20055;-63
2023/12/31 08:41:39;;;;;;;4.47;1.90;;;;;;;;;;4940294;28;20240;-63
2023/12/31 08:44:08;;;;;;;3.53;1.80;;;;;;;;;;4916023;28;20483;-63
2023/12/31 08:46:34;;;;;;;3.42;1.80;;;;;;;;;;4948297;28;20144;-64
2023/12/31 08:49:01;;;;;;;4.03;1.73;;;;;;;;;;4956730;28;20058;-65
2023/12/31 08:51:28;;;;;;;3.85;1.50;;;;;;;;;;4941924;28;20067;-65
2023/12/31 08:53:55;;;;;;;3.65;1.35;;;;;;;;;;4877212;28;20062;-64
2023/12/31 08:56:22;;;;;;;4.75;1.70;;;;;;;;;;4937921;28;20066;-67
2023/12/31 08:58:49;;;;;;;3.83;1.52;;;;;;;;;;4929931;29;20115;-63
2023/12/31 09:01:18;;;;;;;5.82;2.17;;;;;;;;;;4920589;29;20232;-64
2023/12/31 09:03:45;;;;;;;3.70;1.40;;;;;;;;;;4918993;29;20071;-64
2023/12/31 09:06:11;;;;;;;5.47;2.00;;;;;;;;;;4915815;29;20134;-63
2023/12/31 09:08:41;;;;;;;2.63;1.23;;;;;;;;;;4926810;29;20056;-63
2023/12/31 09:11:08;;;;;;;5.35;2.35;;;;;;;;;;4930564;29;20122;-63
2023/12/31 09:13:45;;;;;;;4.47;1.85;;;;;;;;;;4927119;28;20062;-64
2023/12/31 09:16:12;;;;;;;4.97;1.90;;;;;;;;;;4912704;28;20044;-64
2023/12/31 09:18:40;;;;;;;5.22;2.15;;;;;;;;;;4928975;29;20090;-63
2023/12/31 09:21:10;;;;;;;5.32;1.90;;;;;;;;;;4920620;29;20052;-63
2023/12/31 09:23:36;;;;;;;4.00;1.77;;;;;;;;;;4918784;28;20059;-64
2023/12/31 09:26:03;;;;;;;4.05;2.15;;;;;;;;;;4909392;29;20118;-64
2023/12/31 09:28:35;;;;;;;4.63;2.05;;;;;;;;;;4923866;29;20067;-63
2023/12/31 09:31:28;;;;;;;3.83;1.80;;;;;;;;;;4920801;29;20051;-66
2023/12/31 09:34:11;;;;;;;3.80;1.77;;;;;;;;;;4876553;29;20058;-65
2023/12/31 09:36:40;;;;;;;3.83;1.70;;;;;;;;;;4915449;29;20067;-65
2023/12/31 09:39:11;;;;;;;3.28;1.45;;;;;;;;;;4926547;29;20051;-66
2023/12/31 09:41:49;;;;;;;2.88;1.38;;;;;;;;;;4917883;29;20059;-66
2023/12/31 09:44:49;;;;;;;2.45;1.40;;;;;;;;;;4892156;29;20055;-66
2023/12/31 09:47:16;;;;;;;2.78;1.40;;;;;;;;;;4921642;29;20051;-66
2023/12/31 09:49:46;;;;;;;3.03;1.58;;;;;;;;;;4932468;29;20052;-65
2023/12/31 09:52:14;;;;;;;2.53;1.35;;;;;;;;;;4921272;29;21972;-64
2023/12/31 09:54:43;;;;;;;2.60;1.25;;;;;;;;;;4925983;28;20055;-65
2023/12/31 09:57:11;;;;;;;2.15;1.00;;;;;;;;;;4932818;29;20059;-65
2023/12/31 09:59:41;;;;;;;2.42;1.17;;;;;;;;;;4950123;28;20055;-65
2023/12/31 10:02:14;;;;;;;1.95;0.82;;;;;;;;;;4926895;28;20141;-64
2023/12/31 10:04:41;;;;;;;2.58;1.10;;;;;;;;;;4935710;28;20087;-64
2023/12/31 10:07:12;;;;;;;1.58;0.98;;;;;;;;;;4940524;28;20059;-64
2023/12/31 10:09:43;;;;;;;1.38;0.90;;;;;;;;;;4938968;29;20063;-64
2023/12/31 10:12:11;;;;;;;1.35;0.80;;;;;;;;;;4931516;28;20396;-65
2023/12/31 10:14:38;;;;;;;11.00;3.50;;;;;;;;;;4911523;28;20059;-64
2023/12/31 10:17:10;;;;;;;1.27;0.80;;;;;;;;;;4937998;28;20298;-63
2023/12/31 10:19:40;;;;;;;2.17;0.95;;;;;;;;;;4939076;29;21171;-64
2023/12/31 10:22:10;;;;;;;1.42;0.60;;;;;;;;;;4928442;28;20184;-67
2023/12/31 10:24:41;;;;;;;1.40;0.75;;;;;;;;;;4891150;28;20143;-65
2023/12/31 10:30:21;;;;;;;2.08;0.70;;;;;;;;;;4953454;28;20063;-65
2023/12/31 10:32:49;;;;;;;1.05;0.55;;;;;;;;;;4936810;29;20352;-65
2023/12/31 10:35:20;;;;;;;3.67;1.50;;;;;;;;;;4875676;28;20080;-66
2023/12/31 10:37:48;;;;;;;1.55;0.80;;;;;;;;;;4943372;28;20063;-65
2023/12/31 10:40:20;;;;;;;1.83;0.75;;;;;;;;;;4940357;29;20082;-66
2023/12/31 10:42:51;;;;;;;1.55;0.73;;;;;;;;;;4938792;28;20059;-66
2023/12/31 10:45:21;;;;;;;1.30;0.60;;;;;;;;;;4932161;28;20074;-66
2023/12/31 10:47:53;;;;;;;1.73;0.88;;;;;;;;;;4938750;28;20059;-65
2023/12/31 10:50:23;;;;;;;5.68;0.80;;;;;;;;;;4934654;29;20177;-65
2023/12/31 10:52:55;;;;;;;1.00;0.65;;;;;;;;;;4938897;28;20062;-65
2023/12/31 10:55:22;;;;;;;2.58;1.02;;;;;;;;;;4924046;28;20059;-64
2023/12/31 10:57:54;;;;;;;1.55;0.80;;;;;;;;;;4950810;28;20062;-64
2023/12/31 11:00:21;;;;;;;2.30;1.05;;;;;;;;;;4935879;28;20055;-64
2023/12/31 11:02:53;;;;;;;1.95;0.90;;;;;;;;;;4938531;28;20111;-64
2023/12/31 11:05:22;;;;;;;4.38;0.90;;;;;;;;;;4923633;28;20051;-64
2023/12/31 11:07:51;;;;;;;1.77;1.00;;;;;;;;;;4932249;29;20069;-64
2023/12/31 11:10:19;;;;;;;3.08;1.08;;;;;;;;;;4940901;29;20074;-64
2023/12/31 11:12:48;;;;;;;5.28;1.00;;;;;;;;;;4933793;29;20054;-64
2023/12/31 11:15:18;;;;;;;2.67;1.27;;;;;;;;;;4925288;29;20058;-64
2023/12/31 11:18:03;;;;;;;1.83;0.98;;;;;;;;;;4936592;28;20058;-64
2023/12/31 11:20:53;;;;;;;0.98;0.65;;;;;;;;;;4952094;28;20156;-63
2023/12/31 11:23:29;;;;;;;3.85;1.45;;;;;;;;;;4948951;28;20080;-64
2023/12/31 11:25:57;;;;;;;2.92;1.05;;;;;;;;;;4924107;29;20138;-63
2023/12/31 11:28:26;;;;;;;2.78;0.80;;;;;;;;;;4939993;28;20138;-63
2023/12/31 11:30:57;;;;;;;2.63;0.50;;;;;;;;;;4937253;29;20051;-64
2023/12/31 11:33:27;;;;;;;1.10;0.52;;;;;;;;;;4937016;29;20146;-64
2023/12/31 11:35:55;;;;;;;3.47;0.85;;;;;;;;;;4925372;28;20113;-64
2023/12/31 11:38:23;;;;;;;1.73;0.80;;;;;;;;;;4935736;28;20062;-65
2023/12/31 11:40:50;;;;;;;1.00;0.55;;;;;;;;;;4938493;28;20141;-63
2023/12/31 11:43:19;;;;;;;0.93;0.60;;;;;;;;;;4933687;28;20059;-64
2023/12/31 11:45:48;;;;;;;6.40;0.90;;;;;;;;;;4937380;28;20122;-65
2023/12/31 11:48:26;;;;;;;;;;;;;;;;;;4937024;28;20058;-64
2023/12/31 11:50:53;;;;;;;2.28;0.57;;;;;;;;;;4929611;28;19930;-65
2023/12/31 11:53:23;;;;;;;4.50;1.13;;;;;;;;;;4938648;28;20055;-64
2023/12/31 11:55:54;;;;;;;2.75;0.68;;;;;;;;;;4920696;28;20110;-65
2023/12/31 11:58:21;;;;;;;1.20;0.68;;;;;;;;;;4950114;28;21448;-65
2023/12/31 12:00:49;;;;;;;4.45;0.80;;;;;;;;;;4936871;28;20048;-64
2023/12/31 12:03:17;;;;;;;2.30;0.70;;;;;;;;;;4935883;28;20094;-64
2023/12/31 12:05:45;;;;;;;2.70;0.90;;;;;;;;;;4920676;28;20061;-64
2023/12/31 12:08:12;;;;;;;2.17;0.60;;;;;;;;;;4940376;28;20121;-64
2023/12/31 12:10:41;;;;;;;1.75;0.68;;;;;;;;;;4946581;28;20334;-64
2023/12/31 12:13:08;;;;;;;1.27;0.68;;;;;;;;;;4940846;28;20078;-64
2023/12/31 12:15:35;;;;;;;0.90;0.57;;;;;;;;;;4932669;29;20129;-64
2023/12/31 12:18:02;;;;;;;0.75;0.50;;;;;;;;;;4934046;28;20051;-64
2023/12/31 12:20:29;;;;;;;1.27;0.47;;;;;;;;;;4940456;29;20063;-64
2023/12/31 12:22:56;;;;;;;7.15;0.70;;;;;;;;;;4940275;29;20118;-63
2023/12/31 12:25:23;;;;;;;0.80;0.50;;;;;;;;;;4910602;28;20058;-63
2023/12/31 12:27:56;;;;;;;2.97;0.90;;;;;;;;;;4934870;28;20047;-66
2023/12/31 12:30:30;;;;;;;3.95;0.60;;;;;;;;;;4956608;28;20055;-65
2023/12/31 12:33:07;;;;;;;3.53;1.02;;;;;;;;;;4941150;29;20089;-65
2023/12/31 12:35:35;;;;;;;2.50;0.65;;;;;;;;;;4936049;29;20067;-65
2023/12/31 12:38:02;;;;;;;1.48;0.60;;;;;;;;;;4934447;28;20043;-65
2023/12/31 12:40:29;;;;;;;2.92;0.52;;;;;;;;;;4957635;28;20150;-66
2023/12/31 12:42:59;;;;;;;1.15;0.60;;;;;;;;;;4939289;29;20051;-62
2023/12/31 12:45:26;;;;;;;5.68;1.80;;;;;;;;;;4936010;28;20055;-65
2023/12/31 12:47:59;;;;;;;4.20;1.45;;;;;;;;;;4953222;28;20079;-66
2023/12/31 12:50:26;;;;;;;8.07;2.72;;;;;;;;;;4956446;28;20070;-65
2023/12/31 12:52:53;;;;;;;7.25;2.40;;;;;;;;;;4940527;28;20055;-66
2023/12/31 12:55:20;;;;;;;3.83;0.90;;;;;;;;;;4951901;28;20055;-64
2023/12/31 12:57:51;;;;;;;2.63;0.80;;;;;;;;;;4936211;28;20069;-65
2023/12/31 13:00:22;;;;;;;3.25;0.60;;;;;;;;;;4940413;28;20161;-65
2023/12/31 13:02:48;;;;;;;2.47;0.68;;;;;;;;;;4939921;28;20133;-65
2023/12/31 13:05:15;;;;;;;2.22;0.77;;;;;;;;;;4913670;28;20168;-65
2023/12/31 13:07:42;;;;;;;3.58;0.70;;;;;;;;;;4943073;28;20059;-65
2023/12/31 13:10:25;;;;;;;3.58;1.27;;;;;;;;;;4937811;28;20129;-66
2023/12/31 13:12:52;;;;;;;5.03;0.90;;;;;;;;;;4937191;29;20055;-64
2023/12/31 13:15:20;;;;;;;5.28;0.80;;;;;;;;;;4916075;28;20063;-65
2023/12/31 13:17:52;;;;;;;0.90;0.43;;;;;;;;;;4937385;28;20067;-66
2023/12/31 13:20:43;;;;;;;;;;;;;;;;;;;;;
2023/12/31 13:23:10;;;;;;;1.70;0.70;;;;;;;;;;4929632;29;20051;-67
2023/12/31 13:25:39;;;;;;;5.75;0.70;;;;;;;;;;4941909;28;20067;-65
2023/12/31 13:28:09;;;;;;;4.65;0.75;;;;;;;;;;4929476;28;20046;-65
2023/12/31 13:30:40;;;;;;;4.95;0.88;;;;;;;;;;4938295;29;20109;-65
2023/12/31 13:33:07;;;;;;;2.17;0.70;;;;;;;;;;4962812;28;20066;-65
2023/12/31 13:35:40;;;;;;;2.85;0.75;;;;;;;;;;4928155;28;20050;-65
2023/12/31 13:38:16;;;;;;;2.22;0.57;;;;;;;;;;4940469;28;20058;-65
2023/12/31 13:40:43;;;;;;;3.65;0.85;;;;;;;;;;4941201;28;20047;-66
2023/12/31 13:43:10;;;;;;;2.00;0.70;;;;;;;;;;4952793;28;20058;-66
2023/12/31 13:45:46;;;;;;;5.53;1.67;;;;;;;;;;4915453;28;20058;-66
2023/12/31 13:48:13;;;;;;;3.55;1.17;;;;;;;;;;4939706;28;20083;-65
2023/12/31 13:50:43;;;;;;;0.40;0.32;;;;;;;;;;4942091;29;20055;-65
2023/12/31 13:53:11;;;;;;;4.03;0.82;;;;;;;;;;4940654;29;20136;-65
2023/12/31 13:55:38;;;;;;;1.50;0.77;;;;;;;;;;4913397;28;20055;-65
2023/12/31 13:58:05;;;;;;;2.55;0.73;;;;;;;;;;4934838;28;20047;-66
2023/12/31 14:00:34;;;;;;;5.75;0.70;;;;;;;;;;4937137;28;20118;-66
2023/12/31 14:03:04;;;;;;;2.88;0.57;;;;;;;;;;4940404;28;20198;-66
2023/12/31 14:05:31;;;;;;;4.35;0.75;;;;;;;;;;4935436;28;20059;-65
2023/12/31 14:07:58;;;;;;;4.75;0.77;;;;;;;;;;4941858;28;20374;-65
2023/12/31 14:10:25;;;;;;;6.70;1.58;;;;;;;;;;4940072;28;20063;-65
2023/12/31 14:12:52;;;;;;;5.70;1.15;;;;;;;;;;4936513;29;20055;-65
2023/12/31 14:15:19;;;;;;;4.80;0.88;;;;;;;;;;4922178;28;20242;-64
2023/12/31 14:17:53;;;;;;;3.30;0.70;;;;;;;;;;4939291;28;20055;-65
2023/12/31 14:20:21;;;;;;;7.13;1.35;;;;;;;;;;4941446;28;20126;-65
2023/12/31 14:22:50;;;;;;;3.90;0.80;;;;;;;;;;4937831;29;20055;-65
2023/12/31 14:25:17;;;;;;;4.22;0.80;;;;;;;;;;4934668;28;20067;-65
2023/12/31 14:27:45;;;;;;;2.63;0.60;;;;;;;;;;4939418;29;20047;-65
2023/12/31 14:30:13;;;;;;;3.55;0.75;;;;;;;;;;4933850;28;20051;-66
2023/12/31 14:32:39;;;;;;;9.95;2.30;;;;;;;;;;4946518;28;20086;-66
2023/12/31 14:35:07;;;;;;;9.70;2.17;;;;;;;;;;4932252;28;20131;-64
2023/12/31 14:37:35;;;;;;;6.25;2.17;;;;;;;;;;4932902;28;20082;-66
2023/12/31 14:40:02;;;;;;;5.10;1.33;;;;;;;;;;4932345;28;20106;-65
2023/12/31 14:42:34;;;;;;;2.05;0.95;;;;;;;;;;4949462;28;20047;-65
2023/12/31 14:45:01;;;;;;;9.52;1.70;;;;;;;;;;4919240;28;20389;-65
2023/12/31 14:47:38;;;;;;;9.27;1.20;;;;;;;;;;4937091;29;20047;-65
2023/12/31 14:50:17;;;;;;;6.45;1.10;;;;;;;;;;4942148;28;20057;-65
2023/12/31 14:52:46;;;;;;;2.72;1.20;;;;;;;;;;4938303;29;20055;-65
2023/12/31 14:55:19;;;;;;;4.57;1.05;;;;;;;;;;4931798;28;20179;-65
2023/12/31 14:57:47;;;;;;;8.90;1.75;;;;;;;;;;4952627;28;20055;-65